createdAt,value
2022-12-16T00:01:35.575Z,79.13
2022-12-16T00:04:02.791Z,78.73
2022-12-16T00:06:34.589Z,78.83
2022-12-16T00:09:02.177Z,78.89
2022-12-16T00:11:32.208Z,78.79
2022-12-16T00:13:59.381Z,79.66
2022-12-16T00:16:26.612Z,80.28
2022-12-16T00:18:53.651Z,80.46
2022-12-16T00:21:21.489Z,80.55
2022-12-16T00:23:48.552Z,80.52
2022-12-16T00:26:15.576Z,80.74
2022-12-16T00:28:44.091Z,81.06
2022-12-16T00:31:11.754Z,81.32
2022-12-16T00:33:39.294Z,81.48
2022-12-16T00:36:06.864Z,81.45
2022-12-16T00:38:34.542Z,81.76
2022-12-16T00:41:01.750Z,81.19
2022-12-16T00:43:28.982Z,82.16
2022-12-16T00:45:56.309Z,82.30
2022-12-16T00:48:23.604Z,82.04
2022-12-16T00:50:55.498Z,82.60
2022-12-16T00:53:24.315Z,82.69
2022-12-16T00:55:52.598Z,82.64
2022-12-16T00:58:20.807Z,81.96
2022-12-16T01:00:47.873Z,82.51
2022-12-16T01:03:21.083Z,82.96
2022-12-16T01:05:48.501Z,82.14
2022-12-16T01:08:15.690Z,82.14
2022-12-16T01:10:42.741Z,82.30
2022-12-16T01:13:09.809Z,82.19
2022-12-16T01:15:38.180Z,81.90
2022-12-16T01:18:05.542Z,82.29
2022-12-16T01:20:33.614Z,82.35
2022-12-16T01:23:00.931Z,82.96
2022-12-16T01:25:28.276Z,83.19
2022-12-16T01:27:55.295Z,83.10
2022-12-16T01:30:23.100Z,82.95
2022-12-16T01:32:50.133Z,83.15
2022-12-16T01:35:50.991Z,82.86
2022-12-16T01:38:05.354Z,83.26
2022-12-16T01:40:32.355Z,81.97
2022-12-16T01:42:59.394Z,82.44
2022-12-16T01:45:33.473Z,82.07
2022-12-16T01:48:09.440Z,81.97
2022-12-16T01:50:37.778Z,82.31
2022-12-16T01:53:06.684Z,81.87
2022-12-16T01:55:41.022Z,81.69
2022-12-16T01:58:14.273Z,81.69
2022-12-16T02:00:41.781Z,81.84
2022-12-16T02:03:10.971Z,81.60
2022-12-16T02:05:41.671Z,81.11
2022-12-16T02:08:16.902Z,81.32
2022-12-16T02:10:43.821Z,81.23
2022-12-16T02:13:38.429Z,80.79
2022-12-16T02:16:20.170Z,80.47
2022-12-16T02:19:11.152Z,80.41
2022-12-16T02:21:52.908Z,81.02
2022-12-16T02:24:50.234Z,80.29
2022-12-16T02:28:05.181Z,80.48
2022-12-16T02:30:53.460Z,80.72
2022-12-16T02:33:43.418Z,79.78
2022-12-16T02:36:30.785Z,80.00
2022-12-16T02:39:05.144Z,80.40
2022-12-16T02:41:55.695Z,79.32
2022-12-16T02:44:36.071Z,79.56
2022-12-16T02:47:03.110Z,80.12
2022-12-16T02:49:30.650Z,80.58
2022-12-16T02:52:00.658Z,80.12
2022-12-16T02:54:28.741Z,80.72
2022-12-16T02:57:24.112Z,80.05
2022-12-16T03:00:04.751Z,78.99
2022-12-16T03:02:34.499Z,79.66
2022-12-16T03:05:06.310Z,78.49
2022-12-16T03:07:36.654Z,79.24
2022-12-16T03:10:07.506Z,78.97
2022-12-16T03:12:38.471Z,79.22
2022-12-16T03:15:07.925Z,79.13
2022-12-16T03:17:37.477Z,79.93
2022-12-16T03:20:14.312Z,79.47
2022-12-16T03:22:44.884Z,79.41
2022-12-16T03:25:12.115Z,79.18
2022-12-16T03:27:46.365Z,78.81
2022-12-16T03:30:17.821Z,78.38
2022-12-16T03:32:53.441Z,78.68
2022-12-16T03:35:38.533Z,78.96
2022-12-16T03:38:08.861Z,78.89
2022-12-16T03:40:37.233Z,78.66
2022-12-16T03:43:05.013Z,78.96
2022-12-16T03:45:45.894Z,78.69
2022-12-16T03:48:14.179Z,78.91
2022-12-16T03:50:41.392Z,79.09
2022-12-16T03:53:08.900Z,79.05
2022-12-16T03:55:36.100Z,78.69
2022-12-16T03:58:03.074Z,78.58
2022-12-16T04:00:30.166Z,78.12
2022-12-16T04:02:57.410Z,78.68
2022-12-16T04:05:24.791Z,78.51
2022-12-16T04:07:51.950Z,78.41
2022-12-16T04:10:39.075Z,78.94
2022-12-16T04:13:24.666Z,78.33
2022-12-16T04:16:10.493Z,78.71
2022-12-16T04:18:57.493Z,78.23
2022-12-16T04:21:43.371Z,78.66
2022-12-16T04:24:20.049Z,78.69
2022-12-16T04:27:15.067Z,79.29
2022-12-16T04:30:02.030Z,79.20
2022-12-16T04:32:53.043Z,79.29
2022-12-16T04:35:38.640Z,79.66
2022-12-16T04:38:24.479Z,79.49
2022-12-16T04:41:10.273Z,79.96
2022-12-16T04:43:56.046Z,79.63
2022-12-16T04:46:42.051Z,79.71
2022-12-16T04:49:27.683Z,80.66
2022-12-16T04:52:13.427Z,80.68
2022-12-16T04:54:59.333Z,79.79
2022-12-16T04:57:44.800Z,80.20
2022-12-16T05:00:31.254Z,80.60
2022-12-16T05:03:16.957Z,80.69
2022-12-16T05:06:02.710Z,80.08
2022-12-16T05:08:48.576Z,80.95
2022-12-16T05:11:34.659Z,81.53
2022-12-16T05:14:20.268Z,81.80
2022-12-16T05:17:05.996Z,80.79
2022-12-16T05:19:51.691Z,81.54
2022-12-16T05:22:37.277Z,81.67
2022-12-16T05:25:23.298Z,81.82
2022-12-16T05:28:13.221Z,80.91
2022-12-16T05:30:58.445Z,81.51
2022-12-16T05:33:44.320Z,81.00
2022-12-16T05:36:29.802Z,81.29
2022-12-16T05:39:15.556Z,82.15
2022-12-16T05:42:01.045Z,81.70
2022-12-16T05:44:47.012Z,82.27
2022-12-16T05:47:32.450Z,82.52
2022-12-16T05:50:18.166Z,82.33
2022-12-16T05:53:11.169Z,81.62
2022-12-16T05:55:57.089Z,82.16
2022-12-16T05:58:42.532Z,81.16
2022-12-16T06:01:28.530Z,81.81
2022-12-16T06:04:17.647Z,82.33
2022-12-16T06:07:03.981Z,81.90
2022-12-16T06:09:56.080Z,81.96
2022-12-16T06:12:42.408Z,82.45
2022-12-16T06:15:28.750Z,81.97
2022-12-16T06:18:14.571Z,82.88
2022-12-16T06:21:00.632Z,82.37
2022-12-16T06:23:46.543Z,82.74
2022-12-16T06:26:32.490Z,82.41
2022-12-16T06:29:18.463Z,83.35
2022-12-16T06:32:04.133Z,83.36
2022-12-16T06:34:49.911Z,83.09
2022-12-16T06:37:35.423Z,82.81
2022-12-16T06:40:21.517Z,83.20
2022-12-16T06:43:07.222Z,83.31
2022-12-16T06:45:53.141Z,83.86
2022-12-16T06:48:38.680Z,82.99
2022-12-16T06:51:24.270Z,84.17
2022-12-16T06:54:09.882Z,83.43
2022-12-16T06:56:55.642Z,83.99
2022-12-16T06:59:41.213Z,84.76
2022-12-16T07:02:30.048Z,83.68
2022-12-16T07:05:15.748Z,84.36
2022-12-16T07:08:11.087Z,84.23
2022-12-16T07:11:09.009Z,84.38
2022-12-16T07:14:01.377Z,83.99
2022-12-16T07:16:47.068Z,83.72
2022-12-16T07:19:32.979Z,84.25
2022-12-16T07:22:18.708Z,84.64
2022-12-16T07:25:04.472Z,84.82
2022-12-16T07:27:50.036Z,84.54
2022-12-16T07:30:35.531Z,84.17
2022-12-16T07:33:21.256Z,85.13
2022-12-16T07:36:07.079Z,85.38
2022-12-16T07:38:52.904Z,84.97
2022-12-16T07:41:38.743Z,85.09
2022-12-16T07:44:24.292Z,85.61
2022-12-16T07:47:10.214Z,84.99
2022-12-16T07:49:55.893Z,85.37
2022-12-16T07:52:42.251Z,86.41
2022-12-16T07:55:28.446Z,85.87
2022-12-16T07:58:14.290Z,85.54
2022-12-16T08:01:02.731Z,86.83
2022-12-16T08:03:52.223Z,86.98
2022-12-16T08:06:40.479Z,85.63
2022-12-16T08:09:26.513Z,86.46
2022-12-16T08:12:12.396Z,86.20
2022-12-16T08:14:58.261Z,85.70
2022-12-16T08:17:43.872Z,86.21
2022-12-16T08:20:29.566Z,86.40
2022-12-16T08:23:15.296Z,87.03
2022-12-16T08:26:00.761Z,86.51
2022-12-16T08:28:46.594Z,86.90
2022-12-16T08:31:32.025Z,87.03
2022-12-16T08:34:17.587Z,86.64
2022-12-16T08:37:03.400Z,86.69
2022-12-16T08:40:10.625Z,86.62
2022-12-16T08:42:55.021Z,86.99
2022-12-16T08:45:42.987Z,87.81
2022-12-16T08:48:28.822Z,87.84
2022-12-16T08:51:14.613Z,86.76
2022-12-16T08:54:00.454Z,86.94
2022-12-16T08:56:46.193Z,87.69
2022-12-16T08:59:31.942Z,86.82
2022-12-16T09:02:17.879Z,86.87
2022-12-16T09:05:04.071Z,86.51
2022-12-16T09:07:50.042Z,87.19
2022-12-16T09:10:40.380Z,87.37
2022-12-16T09:13:35.201Z,86.52
2022-12-16T09:16:21.226Z,86.55
2022-12-16T09:19:07.433Z,87.19
2022-12-16T09:21:52.964Z,86.83
2022-12-16T09:24:40.522Z,86.82
2022-12-16T09:27:26.037Z,87.30
2022-12-16T09:30:11.729Z,86.75
2022-12-16T09:33:04.665Z,86.76
2022-12-16T09:35:50.564Z,87.26
2022-12-16T09:38:36.603Z,86.98
2022-12-16T09:41:45.501Z,87.30
2022-12-16T09:44:38.801Z,86.99
2022-12-16T09:47:36.808Z,87.15
2022-12-16T09:50:23.268Z,87.33
2022-12-16T09:53:16.746Z,87.04
2022-12-16T09:56:04.592Z,87.49
2022-12-16T09:59:18.821Z,87.11
2022-12-16T10:02:05.095Z,87.99
2022-12-16T10:04:51.553Z,87.75
2022-12-16T10:07:41.701Z,87.48
2022-12-16T10:10:44.288Z,87.53
2022-12-16T10:13:53.437Z,88.13
2022-12-16T10:16:41.173Z,88.09
2022-12-16T10:19:29.827Z,87.97
2022-12-16T10:22:46.328Z,87.58
2022-12-16T10:25:38.941Z,88.13
2022-12-16T10:29:03.323Z,87.55
2022-12-16T10:31:49.722Z,87.52
2022-12-16T10:34:39.874Z,87.67
2022-12-16T10:37:27.197Z,88.17
2022-12-16T10:40:17.792Z,88.00
2022-12-16T10:43:22.607Z,88.05
2022-12-16T10:46:12.952Z,88.05
2022-12-16T10:48:58.683Z,87.80
2022-12-16T10:51:48.046Z,87.63
2022-12-16T10:55:05.118Z,87.94
2022-12-16T10:57:51.911Z,88.22
2022-12-16T11:00:56.857Z,88.41
2022-12-16T11:03:45.613Z,88.20
2022-12-16T11:06:41.063Z,87.76
2022-12-16T11:09:42.930Z,87.74
2022-12-16T11:12:51.295Z,87.68
2022-12-16T11:15:45.439Z,87.86
2022-12-16T11:18:41.901Z,88.33
2022-12-16T11:21:35.094Z,88.34
2022-12-16T11:24:26.386Z,87.67
2022-12-16T11:27:13.727Z,88.23
2022-12-16T11:30:10.841Z,87.99
2022-12-16T11:32:58.794Z,87.98
2022-12-16T11:35:48.584Z,87.84
2022-12-16T11:38:57.487Z,88.14
2022-12-16T11:41:47.951Z,87.99
2022-12-16T11:44:40.221Z,88.26
2022-12-16T11:47:37.227Z,88.42
2022-12-16T11:50:29.701Z,87.91
2022-12-16T11:53:16.005Z,88.25
2022-12-16T11:56:08.895Z,88.58
2022-12-16T11:59:09.170Z,88.09
2022-12-16T12:02:18.373Z,88.61
2022-12-16T12:05:04.207Z,88.41
2022-12-16T12:08:18.663Z,88.36
2022-12-16T12:11:23.293Z,88.48
2022-12-16T12:14:26.805Z,89.19
2022-12-16T12:17:33.381Z,88.56
2022-12-16T12:20:53.539Z,89.07
2022-12-16T12:24:03.200Z,88.81
2022-12-16T12:26:55.078Z,88.96
2022-12-16T12:29:44.254Z,88.66
2022-12-16T12:33:00.632Z,88.99
2022-12-16T12:36:10.950Z,89.20
2022-12-16T12:39:22.219Z,89.10
2022-12-16T12:42:18.239Z,88.61
2022-12-16T12:45:19.871Z,89.40
2022-12-16T12:48:34.121Z,89.24
2022-12-16T12:51:31.000Z,89.50
2022-12-16T12:54:22.555Z,89.24
2022-12-16T12:57:11.019Z,89.70
2022-12-16T13:00:11.731Z,88.84
2022-12-16T13:03:26.696Z,89.41
2022-12-16T13:06:13.581Z,88.84
2022-12-16T13:09:07.976Z,89.05
2022-12-16T13:11:55.770Z,89.16
2022-12-16T13:14:51.560Z,89.19
2022-12-16T13:17:42.119Z,88.76
2022-12-16T13:20:51.533Z,88.93
2022-12-16T13:23:46.254Z,89.30
2022-12-16T13:26:34.744Z,88.77
2022-12-16T13:29:43.102Z,89.28
2022-12-16T13:32:28.711Z,89.14
2022-12-16T13:35:29.148Z,89.01
2022-12-16T13:38:18.194Z,88.55
2022-12-16T13:41:22.157Z,88.51
2022-12-16T13:44:14.263Z,88.88
2022-12-16T13:47:07.341Z,88.32
2022-12-16T13:49:56.142Z,88.23
2022-12-16T13:53:07.877Z,88.58
2022-12-16T13:56:11.274Z,88.73
2022-12-16T13:59:08.249Z,89.02
2022-12-16T14:01:56.011Z,88.97
2022-12-16T14:04:48.404Z,88.94
2022-12-16T14:07:37.095Z,88.86
2022-12-16T14:10:23.064Z,88.83
2022-12-16T14:13:22.244Z,88.91
2022-12-16T14:16:23.260Z,89.67
2022-12-16T14:19:30.445Z,89.34
2022-12-16T14:22:48.733Z,89.11
2022-12-16T14:25:38.661Z,88.96
2022-12-16T14:28:36.263Z,88.70
2022-12-16T14:31:33.183Z,89.22
2022-12-16T14:34:22.403Z,89.64
2022-12-16T14:37:08.068Z,89.38
2022-12-16T14:40:10.051Z,89.82
2022-12-16T14:42:59.506Z,89.51
2022-12-16T14:45:49.638Z,89.14
2022-12-16T14:48:54.966Z,89.63
2022-12-16T14:51:49.441Z,89.64
2022-12-16T14:55:09.355Z,90.09
2022-12-16T14:57:54.826Z,89.98
2022-12-16T15:00:42.395Z,89.74
2022-12-16T15:03:53.032Z,89.16
2022-12-16T15:07:10.350Z,89.12
2022-12-16T15:10:03.564Z,89.22
2022-12-16T15:12:56.802Z,89.25
2022-12-16T15:15:49.335Z,88.89
2022-12-16T15:18:40.222Z,89.95
2022-12-16T15:21:27.002Z,89.63
2022-12-16T15:24:12.930Z,89.66
2022-12-16T15:26:58.835Z,89.61
2022-12-16T15:29:55.620Z,89.64
2022-12-16T15:32:44.017Z,89.12
2022-12-16T15:35:44.780Z,89.35
2022-12-16T15:38:53.463Z,89.41
2022-12-16T15:41:49.210Z,89.80
2022-12-16T15:44:37.163Z,89.32
2022-12-16T15:47:23.692Z,90.69
2022-12-16T15:50:10.152Z,90.22
2022-12-16T15:53:02.162Z,89.69
2022-12-16T15:55:53.203Z,90.61
2022-12-16T15:58:56.004Z,90.63
2022-12-16T16:01:44.743Z,90.35
2022-12-16T16:04:45.758Z,90.68
2022-12-16T16:07:42.062Z,90.53
2022-12-16T16:10:34.825Z,89.96
2022-12-16T16:13:20.194Z,89.96
2022-12-16T16:16:06.292Z,90.53
2022-12-16T16:18:52.381Z,90.50
2022-12-16T16:21:38.933Z,90.42
2022-12-16T16:24:24.442Z,90.82
2022-12-16T16:27:12.498Z,90.85
2022-12-16T16:29:57.954Z,91.10
2022-12-16T16:32:43.435Z,90.93
2022-12-16T16:35:29.133Z,90.86
2022-12-16T16:38:18.331Z,90.46
2022-12-16T16:41:04.899Z,90.90
2022-12-16T16:43:50.792Z,90.57
2022-12-16T16:46:39.566Z,90.91
2022-12-16T16:49:29.505Z,90.25
2022-12-16T16:52:25.867Z,90.45
2022-12-16T16:55:11.174Z,90.22
2022-12-16T16:57:57.394Z,90.32
2022-12-16T17:00:42.948Z,90.42
2022-12-16T17:03:28.911Z,90.25
2022-12-16T17:06:14.619Z,90.45
2022-12-16T17:09:00.481Z,90.48
2022-12-16T17:11:47.101Z,90.64
2022-12-16T17:14:36.751Z,91.04
2022-12-16T17:17:22.721Z,91.45
2022-12-16T17:20:08.194Z,91.77
2022-12-16T17:22:55.091Z,91.24
2022-12-16T17:25:40.770Z,91.46
2022-12-16T17:28:26.581Z,91.59
2022-12-16T17:31:12.376Z,91.66
2022-12-16T17:33:57.920Z,91.39
2022-12-16T17:36:43.443Z,92.27
2022-12-16T17:39:30.447Z,91.95
2022-12-16T17:42:16.140Z,91.60
2022-12-16T17:45:01.775Z,91.18
2022-12-16T17:47:47.631Z,91.56
2022-12-16T17:50:33.297Z,92.22
2022-12-16T17:53:18.960Z,91.95
2022-12-16T17:56:04.657Z,91.68
2022-12-16T17:58:55.741Z,92.01
2022-12-16T18:01:42.824Z,91.63
2022-12-16T18:04:28.727Z,91.50
2022-12-16T18:07:14.212Z,91.89
2022-12-16T18:09:59.926Z,91.73
2022-12-16T18:12:45.924Z,91.62
2022-12-16T18:15:31.480Z,91.81
2022-12-16T18:18:17.245Z,91.83
2022-12-16T18:21:19.772Z,91.97
2022-12-16T18:24:05.628Z,92.03
2022-12-16T18:26:51.010Z,92.05
2022-12-16T18:29:36.592Z,91.68
2022-12-16T18:32:22.172Z,91.99
2022-12-16T18:35:07.760Z,92.11
2022-12-16T18:38:04.053Z,91.46
2022-12-16T18:40:49.595Z,91.29
2022-12-16T18:43:35.683Z,91.44
2022-12-16T18:46:21.388Z,91.29
2022-12-16T18:49:06.941Z,91.43
2022-12-16T18:51:52.515Z,91.62
2022-12-16T18:54:38.022Z,91.60
2022-12-16T18:57:23.569Z,92.11
2022-12-16T19:00:09.401Z,91.64
2022-12-16T19:02:55.178Z,91.62
2022-12-16T19:05:40.971Z,92.01
2022-12-16T19:08:26.481Z,91.84
2022-12-16T19:11:16.239Z,91.12
2022-12-16T19:14:01.781Z,91.51
2022-12-16T19:16:47.614Z,91.27
2022-12-16T19:19:33.643Z,91.53
2022-12-16T19:22:18.969Z,91.57
2022-12-16T19:25:04.541Z,91.45
2022-12-16T19:27:50.221Z,91.22
2022-12-16T19:30:43.473Z,90.84
2022-12-16T19:33:30.261Z,91.08
2022-12-16T19:36:15.822Z,90.50
2022-12-16T19:39:01.722Z,91.21
2022-12-16T19:41:47.173Z,91.92
2022-12-16T19:44:32.900Z,91.38
2022-12-16T19:47:18.437Z,91.58
2022-12-16T19:50:03.897Z,91.30
2022-12-16T19:52:49.851Z,91.01
2022-12-16T19:55:35.408Z,91.00
2022-12-16T19:58:20.965Z,91.17
2022-12-16T20:01:06.578Z,90.93
2022-12-16T20:04:05.654Z,91.13
2022-12-16T20:06:51.153Z,90.81
2022-12-16T20:09:37.074Z,90.55
2022-12-16T20:12:23.209Z,90.95
2022-12-16T20:15:09.224Z,90.98
2022-12-16T20:17:56.100Z,91.40
2022-12-16T20:20:42.045Z,90.76
2022-12-16T20:23:27.941Z,91.27
2022-12-16T20:26:15.814Z,90.51
2022-12-16T20:29:01.803Z,90.99
2022-12-16T20:31:48.243Z,91.08
2022-12-16T20:34:33.882Z,90.87
2022-12-16T20:37:19.762Z,91.26
2022-12-16T20:40:05.223Z,90.73
2022-12-16T20:42:50.880Z,90.66
2022-12-16T20:45:39.661Z,90.40
2022-12-16T20:48:25.153Z,91.14
2022-12-16T20:51:18.536Z,90.77
2022-12-16T20:54:12.273Z,90.19
2022-12-16T20:56:58.176Z,90.76
2022-12-16T20:59:44.207Z,90.44
2022-12-16T21:05:39.044Z,91.05
2022-12-16T21:08:24.972Z,91.00
2022-12-16T21:11:15.621Z,90.39
2022-12-16T21:14:01.422Z,90.33
2022-12-16T21:16:47.131Z,90.78
2022-12-16T21:19:33.800Z,90.73
2022-12-16T21:22:19.849Z,90.79
2022-12-16T21:25:05.440Z,89.87
2022-12-16T21:27:51.116Z,89.89
2022-12-16T21:30:38.094Z,90.76
2022-12-16T21:33:24.043Z,90.57
2022-12-16T21:36:11.391Z,89.95
2022-12-16T21:38:57.234Z,90.27
2022-12-16T21:41:42.809Z,90.32
2022-12-16T21:44:28.517Z,90.16
2022-12-16T21:47:14.004Z,89.81
2022-12-16T21:50:01.055Z,89.88
2022-12-16T21:52:48.389Z,90.74
2022-12-16T21:55:33.933Z,90.54
2022-12-16T21:58:20.103Z,89.89
2022-12-16T22:01:13.721Z,90.05
2022-12-16T22:03:59.464Z,90.20
2022-12-16T22:09:51.817Z,89.86
2022-12-16T22:12:37.462Z,89.78
2022-12-16T22:15:23.545Z,89.08
2022-12-16T22:18:09.197Z,89.66
2022-12-16T22:20:55.089Z,90.31
2022-12-16T22:23:47.091Z,89.53
2022-12-16T22:26:32.824Z,89.03
2022-12-16T22:29:18.213Z,89.46
2022-12-16T22:32:03.759Z,89.73
2022-12-16T22:34:49.370Z,89.41
2022-12-16T22:36:21.775Z,90.44
2022-12-16T22:36:22.143Z,89.64
2022-12-16T22:37:35.033Z,89.35
2022-12-16T22:40:20.670Z,90.08
2022-12-16T22:43:07.446Z,90.01
2022-12-16T22:45:53.138Z,89.73
2022-12-16T22:48:41.938Z,89.72
2022-12-16T22:51:31.993Z,89.89
2022-12-16T22:54:17.794Z,89.57
2022-12-16T22:57:03.723Z,89.83
2022-12-16T22:59:49.353Z,89.96
2022-12-16T23:02:35.163Z,89.29
2022-12-16T23:05:25.488Z,89.82
2022-12-16T23:08:30.905Z,89.13
2022-12-16T23:11:18.585Z,88.93
2022-12-16T23:14:05.204Z,90.07
2022-12-16T23:16:51.691Z,89.34
2022-12-16T23:19:39.210Z,89.41
2022-12-16T23:22:24.562Z,89.33
2022-12-16T23:25:10.298Z,89.75
2022-12-16T23:27:56.170Z,89.09
2022-12-16T23:30:42.232Z,88.86
2022-12-16T23:33:27.750Z,88.40
2022-12-16T23:36:13.251Z,88.37
2022-12-16T23:38:58.784Z,89.06
2022-12-16T23:41:44.533Z,89.32
2022-12-16T23:44:30.196Z,89.02
2022-12-16T23:47:16.005Z,88.57
2022-12-16T23:50:01.505Z,88.63
2022-12-16T23:52:47.279Z,88.98
2022-12-16T23:55:32.821Z,88.92
2022-12-16T23:58:23.276Z,88.14
